Terminal Aerodrome Forecast
Issued by NWS

Home | Current Version | Previous Version | Text Only | Print | Product List | Glossary Off
Versions: 1 2 3 4 5 6 7 8 9 10 11 12 13 14 15 16 17 18 19 20 21 22 23 24 25

000
FTUS43 KGRB 241100 RRA
TAFATW
TAF
KATW 241141Z 2412/2512 30007KT 3SM -DZ BR SCT004 OVC018
      TEMPO 2412/2415 2SM -RA BR BKN004
     FM241500 31009KT 2SM -RA BR OVC008
     FM241800 31010G18KT 4SM -RA OVC009
     FM242000 31012G20KT 2SM -RASN OVC009
     FM242200 31012G16KT 1/2SM SN OVC006
     FM250500 30010KT 3SM -SN BR BKN012=

USA.gov is the U.S. government's official web portal to all federal, state and local government web resources and services.